Time;durP1;ratioP1;P1;durP2;ratioP2;P2;SDS_P1;SDS_P2;PMS_P1;PMS_P2;Temp;Humidity;BMP_temperature;BMP_pressure;BME280_temperature;BME280_humidity;BME280_pressure;Samples;Min_cycle;Max_cycle;Signal;HPM_P1;HPM_P2
2023/07/12 00:00:43;;;;;;;1.15;0.70;;;20.60;99.90;;;;;;5071348;28;20778;-57
2023/07/12 00:03:10;;;;;;;1.40;0.60;;;20.60;99.90;;;;;;5072346;28;21041;-56
2023/07/12 00:05:39;;;;;;;1.00;0.70;;;20.50;99.90;;;;;;5072110;28;20415;-58
2023/07/12 00:08:09;;;;;;;1.00;0.60;;;20.50;99.90;;;;;;5072793;28;20426;-58
2023/07/12 00:10:37;;;;;;;2.50;0.60;;;20.50;99.90;;;;;;5072501;28;20704;-57
2023/07/12 00:13:04;;;;;;;1.00;0.60;;;20.50;99.90;;;;;;5071969;28;20488;-55
2023/07/12 00:15:32;;;;;;;0.90;0.60;;;20.50;99.90;;;;;;5072388;28;20427;-53
2023/07/12 00:17:59;;;;;;;1.70;0.60;;;20.50;99.90;;;;;;5073744;28;20834;-57
2023/07/12 00:20:30;;;;;;;1.55;0.60;;;20.60;99.90;;;;;;5075904;28;20415;-57
2023/07/12 00:22:59;;;;;;;1.00;0.60;;;20.60;99.90;;;;;;5075553;28;20423;-54
2023/07/12 00:25:30;;;;;;;0.80;0.60;;;20.50;99.90;;;;;;5076425;28;20427;-54
2023/07/12 00:27:57;;;;;;;0.98;0.50;;;20.60;99.90;;;;;;5075906;28;20497;-56
2023/07/12 00:30:27;;;;;;;0.85;0.50;;;20.60;99.90;;;;;;5075577;28;20431;-56
2023/07/12 00:32:57;;;;;;;0.80;0.50;;;20.70;99.90;;;;;;5074487;28;20983;-55
2023/07/12 00:35:26;;;;;;;1.10;0.60;;;20.80;99.90;;;;;;5075054;28;20500;-57
2023/07/12 00:37:55;;;;;;;0.70;0.50;;;20.80;99.90;;;;;;5076514;28;20415;-55
2023/07/12 00:41:03;;;;;;;0.70;0.50;;;20.80;99.90;;;;;;5075859;28;20454;-56
2023/07/12 00:43:37;;;;;;;1.50;0.50;;;20.80;99.90;;;;;;5076521;28;20419;-57
2023/07/12 00:46:11;;;;;;;1.10;0.40;;;20.80;99.90;;;;;;5076467;28;20545;-55
2023/07/12 00:48:38;;;;;;;3.00;0.50;;;20.80;99.90;;;;;;5077420;28;20451;-57
2023/07/12 00:51:27;;;;;;;0.70;0.50;;;21.00;99.90;;;;;;5077015;28;20423;-57
2023/07/12 00:53:55;;;;;;;1.00;0.50;;;21.10;99.90;;;;;;5073864;28;20516;-56
2023/07/12 00:56:24;;;;;;;0.70;0.50;;;21.10;99.90;;;;;;5075772;28;20886;-56
2023/07/12 00:58:55;;;;;;;0.68;0.40;;;20.90;99.90;;;;;;5076995;28;20724;-58
2023/07/12 01:01:26;;;;;;;1.40;0.50;;;20.80;99.90;;;;;;5076814;28;20757;-57
2023/07/12 01:03:55;;;;;;;0.90;0.50;;;20.80;99.90;;;;;;5076724;28;20427;-57
2023/07/12 01:06:24;;;;;;;1.20;0.50;;;20.80;99.90;;;;;;5077211;28;20485;-57
2023/07/12 01:08:52;;;;;;;0.90;0.50;;;20.80;99.90;;;;;;5077010;28;20427;-54
2023/07/12 01:11:21;;;;;;;0.90;0.50;;;20.70;99.90;;;;;;5076994;28;20415;-57
2023/07/12 01:13:51;;;;;;;1.90;0.50;;;20.80;99.90;;;;;;5076293;28;20447;-54
2023/07/12 01:16:21;;;;;;;0.90;0.50;;;20.70;99.90;;;;;;5075265;28;21146;-56
2023/07/12 01:18:48;;;;;;;1.13;0.50;;;20.70;99.90;;;;;;5076625;28;20454;-57
2023/07/12 01:21:19;;;;;;;0.95;0.50;;;20.60;99.90;;;;;;5077034;28;20781;-57
2023/07/12 01:23:47;;;;;;;0.90;0.50;;;20.60;99.90;;;;;;5075640;28;20427;-56
2023/07/12 01:26:24;;;;;;;1.10;0.60;;;20.50;99.90;;;;;;5075737;28;20416;-55
2023/07/12 01:28:54;;;;;;;0.90;0.57;;;20.60;99.90;;;;;;5076282;28;20522;-54
2023/07/12 01:31:22;;;;;;;0.80;0.50;;;20.60;99.90;;;;;;5074913;28;20488;-57
2023/07/12 01:33:49;;;;;;;0.70;0.50;;;20.70;99.90;;;;;;5074244;28;20447;-56
2023/07/12 01:36:18;;;;;;;0.80;0.57;;;21.00;99.90;;;;;;5076186;28;20431;-54
2023/07/12 01:38:46;;;;;;;1.13;0.50;;;21.10;99.90;;;;;;5076160;28;20423;-56
2023/07/12 01:41:13;;;;;;;1.20;0.60;;;21.10;99.90;;;;;;5075137;28;20419;-55
2023/07/12 01:43:40;;;;;;;0.80;0.50;;;21.10;99.90;;;;;;5075727;28;20428;-54
2023/07/12 01:46:08;;;;;;;0.80;0.50;;;21.00;99.90;;;;;;5074841;28;20501;-51
2023/07/12 01:48:35;;;;;;;1.90;0.50;;;21.00;99.90;;;;;;5073699;28;20431;-51
2023/07/12 01:51:02;;;;;;;0.80;0.55;;;20.90;99.90;;;;;;5075735;28;20435;-55
2023/07/12 01:53:31;;;;;;;0.90;0.50;;;20.80;99.90;;;;;;5075272;28;20804;-52
2023/07/12 01:55:59;;;;;;;1.10;0.60;;;20.60;99.90;;;;;;5076515;28;20451;-55
2023/07/12 01:58:26;;;;;;;0.90;0.55;;;20.50;99.90;;;;;;5075658;28;20866;-54
2023/07/12 02:00:53;;;;;;;1.30;0.50;;;20.50;99.90;;;;;;5076671;28;20423;-55
2023/07/12 02:03:21;;;;;;;1.20;0.60;;;20.50;99.90;;;;;;5075805;28;20800;-54
2023/07/12 02:05:48;;;;;;;1.60;0.50;;;20.50;99.90;;;;;;5074837;28;20842;-54
2023/07/12 02:08:16;;;;;;;0.90;0.60;;;20.70;99.90;;;;;;5074749;28;20449;-52
2023/07/12 02:10:44;;;;;;;1.50;0.60;;;20.70;99.90;;;;;;5075018;28;20516;-55
2023/07/12 02:13:11;;;;;;;0.80;0.50;;;20.70;99.90;;;;;;5073825;28;20435;-54
2023/07/12 02:15:38;;;;;;;1.75;0.60;;;20.70;99.90;;;;;;5074589;28;20427;-56
2023/07/12 02:18:06;;;;;;;2.50;0.70;;;20.70;99.90;;;;;;5072964;28;20439;-54
2023/07/12 02:20:33;;;;;;;2.75;0.60;;;20.70;99.90;;;;;;5072135;28;21014;-54
2023/07/12 02:23:00;;;;;;;1.30;0.50;;;20.70;99.90;;;;;;5075033;28;20423;-54
2023/07/12 02:25:27;;;;;;;0.90;0.70;;;20.70;99.90;;;;;;5075392;28;20431;-54
2023/07/12 02:27:55;;;;;;;0.82;0.50;;;20.60;99.90;;;;;;5075103;28;20493;-55
2023/07/12 02:30:25;;;;;;;1.20;0.70;;;20.70;99.90;;;;;;5074236;28;20898;-52
2023/07/12 02:32:52;;;;;;;1.42;0.50;;;20.70;99.90;;;;;;5075002;28;20896;-57
2023/07/12 02:35:21;;;;;;;1.10;0.60;;;20.70;99.90;;;;;;5075323;28;20434;-56
2023/07/12 02:37:49;;;;;;;1.30;0.60;;;20.70;99.90;;;;;;5075134;28;20423;-56
2023/07/12 02:40:16;;;;;;;1.10;0.50;;;20.70;99.90;;;;;;5074462;28;20427;-56
2023/07/12 02:42:43;;;;;;;1.52;0.70;;;20.70;99.90;;;;;;5074534;28;20481;-51
2023/07/12 02:45:12;;;;;;;0.93;0.60;;;20.80;99.90;;;;;;5075199;28;20489;-57
2023/07/12 02:47:38;;;;;;;0.90;0.60;;;20.90;99.90;;;;;;5074160;28;20427;-56
2023/07/12 02:50:06;;;;;;;3.60;0.70;;;20.80;99.90;;;;;;5074239;28;20490;-57
2023/07/12 02:52:34;;;;;;;0.90;0.60;;;20.80;99.90;;;;;;5073629;28;20496;-56
2023/07/12 02:55:01;;;;;;;1.10;0.60;;;20.70;99.90;;;;;;5074149;28;20546;-56
2023/07/12 02:57:28;;;;;;;1.30;1.00;;;20.80;99.90;;;;;;5074525;28;20431;-57
2023/07/12 02:59:55;;;;;;;1.30;0.60;;;20.70;99.90;;;;;;5074101;28;20428;-57
2023/07/12 03:02:24;;;;;;;1.03;0.60;;;20.60;99.90;;;;;;5073847;28;20789;-56
2023/07/12 03:04:52;;;;;;;1.67;0.60;;;20.60;99.90;;;;;;5073742;28;20431;-56
2023/07/12 03:07:19;;;;;;;2.50;0.60;;;20.60;99.90;;;;;;5074100;28;20508;-57
2023/07/12 03:09:46;;;;;;;0.90;0.60;;;20.60;99.90;;;;;;5073443;28;20489;-57
2023/07/12 03:12:13;;;;;;;2.50;0.60;;;20.50;99.90;;;;;;5073655;28;20431;-56
2023/07/12 03:14:40;;;;;;;2.30;0.60;;;20.50;99.90;;;;;;5072769;28;20431;-56
2023/07/12 03:17:07;;;;;;;0.80;0.60;;;20.50;99.90;;;;;;5074477;28;20420;-57
2023/07/12 03:19:36;;;;;;;1.33;0.60;;;20.40;99.90;;;;;;5074949;28;20488;-56
2023/07/12 03:22:03;;;;;;;1.98;0.65;;;20.60;99.90;;;;;;5074420;28;20843;-57
2023/07/12 03:24:30;;;;;;;1.90;0.60;;;20.60;99.90;;;;;;5072693;28;20431;-57
2023/07/12 03:26:57;;;;;;;1.90;0.60;;;20.70;99.90;;;;;;5072501;28;20715;-56
2023/07/12 03:29:24;;;;;;;2.42;0.60;;;20.60;99.90;;;;;;5072547;28;20423;-55
2023/07/12 03:31:51;;;;;;;1.57;0.60;;;20.60;99.90;;;;;;5071760;28;20427;-56
2023/07/12 03:34:18;;;;;;;3.92;0.70;;;20.50;99.90;;;;;;5071664;28;20435;-57
2023/07/12 03:36:47;;;;;;;1.20;0.60;;;20.70;99.90;;;;;;5071512;28;20430;-57
2023/07/12 03:39:14;;;;;;;1.38;0.60;;;20.70;99.90;;;;;;5073582;28;20493;-56
2023/07/12 03:41:41;;;;;;;1.50;0.65;;;20.70;99.90;;;;;;5073593;28;20435;-57
2023/07/12 03:44:08;;;;;;;1.20;0.60;;;20.90;99.90;;;;;;5073858;28;20426;-57
2023/07/12 03:46:35;;;;;;;0.90;0.65;;;21.00;99.90;;;;;;5074704;28;20462;-57
2023/07/12 03:49:02;;;;;;;2.30;0.70;;;20.90;99.90;;;;;;5073576;28;20431;-56
2023/07/12 03:51:29;;;;;;;1.30;0.70;;;20.90;99.90;;;;;;5073745;28;20489;-56
2023/07/12 03:53:58;;;;;;;1.60;0.60;;;20.90;99.90;;;;;;5076152;28;20470;-56
2023/07/12 03:56:25;;;;;;;0.98;0.60;;;20.90;99.90;;;;;;5077564;28;20420;-55
2023/07/12 03:58:53;;;;;;;2.55;0.70;;;20.90;99.90;;;;;;5077517;28;20423;-56
2023/07/12 04:01:20;;;;;;;1.30;0.70;;;21.00;99.90;;;;;;5077432;28;20427;-57
2023/07/12 04:03:47;;;;;;;2.45;0.70;;;21.00;99.90;;;;;;5077373;28;20436;-57
2023/07/12 04:06:14;;;;;;;1.42;0.70;;;21.10;99.90;;;;;;5077676;28;20425;-57
2023/07/12 04:08:41;;;;;;;1.87;0.70;;;21.30;99.90;;;;;;5076843;28;20419;-57
2023/07/12 04:11:25;;;;;;;1.42;0.70;;;21.20;99.90;;;;;;5077115;28;20917;-57
2023/07/12 04:13:52;;;;;;;1.77;0.80;;;21.10;99.90;;;;;;5075926;28;20459;-55
2023/07/12 04:16:20;;;;;;;1.10;0.70;;;21.10;99.90;;;;;;5077153;28;20489;-55
2023/07/12 04:18:47;;;;;;;1.30;0.70;;;21.10;99.90;;;;;;5077312;28;20439;-56
2023/07/12 04:21:14;;;;;;;1.10;0.70;;;21.20;99.90;;;;;;5077529;28;20427;-56
2023/07/12 04:23:41;;;;;;;2.45;0.70;;;21.20;99.90;;;;;;5077003;28;20511;-56
2023/07/12 04:26:11;;;;;;;2.28;0.70;;;21.20;99.90;;;;;;5076667;28;20462;-58
2023/07/12 04:28:39;;;;;;;1.45;0.70;;;21.10;99.90;;;;;;5077968;28;20431;-56
2023/07/12 04:31:10;;;;;;;1.90;0.60;;;21.10;99.90;;;;;;5077220;28;20788;-58
2023/07/12 04:33:37;;;;;;;1.00;0.70;;;21.20;99.90;;;;;;5075244;28;20435;-58
2023/07/12 04:36:08;;;;;;;1.20;0.60;;;21.20;99.90;;;;;;5075745;28;20743;-57
2023/07/12 04:38:36;;;;;;;0.90;0.60;;;21.20;99.90;;;;;;5074961;28;20419;-58
2023/07/12 04:41:03;;;;;;;0.80;0.60;;;21.30;99.90;;;;;;5073756;28;20770;-57
2023/07/12 04:43:32;;;;;;;1.70;0.70;;;21.40;99.90;;;;;;5074510;28;20431;-56
2023/07/12 04:46:00;;;;;;;1.30;0.70;;;21.50;99.90;;;;;;5074343;28;20508;-58
2023/07/12 04:48:27;;;;;;;3.05;0.70;;;21.60;99.90;;;;;;5075294;28;20427;-58
2023/07/12 04:50:55;;;;;;;1.50;0.80;;;21.60;99.90;;;;;;5074918;28;20886;-58
2023/07/12 04:53:23;;;;;;;1.70;0.70;;;21.70;99.90;;;;;;5075470;28;20411;-57
2023/07/12 04:55:52;;;;;;;1.67;0.90;;;21.90;99.90;;;;;;5075044;28;20423;-58
2023/07/12 04:58:19;;;;;;;1.10;0.70;;;21.90;99.90;;;;;;5075425;28;20435;-58
2023/07/12 05:00:48;;;;;;;1.80;0.70;;;22.00;99.90;;;;;;5075829;28;20504;-57
2023/07/12 05:03:16;;;;;;;1.60;0.77;;;22.10;99.90;;;;;;5073076;28;20441;-57
2023/07/12 05:05:43;;;;;;;1.48;0.70;;;22.10;99.90;;;;;;5076764;28;20494;-58
2023/07/12 05:08:10;;;;;;;1.55;0.70;;;22.10;99.90;;;;;;5075599;28;20419;-57
2023/07/12 05:10:38;;;;;;;1.00;0.70;;;22.10;99.90;;;;;;5073683;28;20595;-57
2023/07/12 05:13:05;;;;;;;1.40;0.70;;;22.10;99.90;;;;;;5074872;28;20438;-58
2023/07/12 05:15:32;;;;;;;1.20;0.80;;;22.20;99.90;;;;;;5074854;28;20716;-58
2023/07/12 05:18:01;;;;;;;1.40;0.80;;;22.30;99.90;;;;;;5075290;28;20912;-56
2023/07/12 05:20:28;;;;;;;1.00;0.77;;;22.30;99.90;;;;;;5074890;28;20423;-57
2023/07/12 05:22:55;;;;;;;1.88;0.70;;;22.30;99.90;;;;;;5074166;28;20423;-58
2023/07/12 05:25:22;;;;;;;2.10;0.80;;;22.30;99.90;;;;;;5073494;28;20492;-58
2023/07/12 05:27:49;;;;;;;1.80;0.80;;;22.30;99.90;;;;;;5072755;28;20809;-57
2023/07/12 05:30:17;;;;;;;1.70;0.70;;;22.30;99.90;;;;;;5071902;28;20430;-57
2023/07/12 05:32:44;;;;;;;1.95;0.80;;;22.30;99.90;;;;;;5074258;28;20557;-58
2023/07/12 05:35:12;;;;;;;3.08;0.75;;;22.40;99.90;;;;;;5073860;28;20440;-58
2023/07/12 05:37:39;;;;;;;2.15;0.90;;;22.40;99.90;;;;;;5072658;28;20435;-58
2023/07/12 05:40:09;;;;;;;2.10;0.90;;;22.40;99.90;;;;;;5071819;28;20485;-57
2023/07/12 05:42:40;;;;;;;1.60;0.80;;;22.40;99.90;;;;;;5055843;28;20494;-58
2023/07/12 05:45:07;;;;;;;1.70;1.00;;;22.40;99.90;;;;;;5073994;28;20436;-58
2023/07/12 05:47:35;;;;;;;1.60;0.90;;;22.30;99.90;;;;;;5072377;28;20415;-58
2023/07/12 05:50:02;;;;;;;2.10;0.80;;;22.30;99.90;;;;;;5072655;28;20481;-58
2023/07/12 05:52:30;;;;;;;4.00;1.20;;;22.40;99.90;;;;;;5073788;28;20551;-58
2023/07/12 05:54:57;;;;;;;1.55;0.80;;;22.50;99.90;;;;;;5073066;28;20932;-58
2023/07/12 05:57:24;;;;;;;1.80;0.80;;;22.60;99.90;;;;;;5072489;28;20910;-58
2023/07/12 05:59:52;;;;;;;1.70;0.93;;;22.60;99.90;;;;;;5072143;28;20430;-59
2023/07/12 06:02:19;;;;;;;2.30;0.90;;;22.60;99.90;;;;;;5070482;28;20420;-58
2023/07/12 06:04:46;;;;;;;2.70;0.90;;;22.60;99.90;;;;;;5073918;28;20427;-59
2023/07/12 06:07:13;;;;;;;2.13;1.00;;;22.60;99.90;;;;;;5070767;28;20522;-59
2023/07/12 06:09:41;;;;;;;2.88;0.90;;;22.60;99.90;;;;;;5068951;28;20434;-58
2023/07/12 06:12:09;;;;;;;1.33;0.90;;;22.70;99.90;;;;;;5084633;28;20444;-58
2023/07/12 06:14:36;;;;;;;3.47;1.00;;;22.80;99.90;;;;;;5091309;28;20562;-58
2023/07/12 06:17:03;;;;;;;2.65;1.00;;;22.80;99.90;;;;;;5090808;28;20422;-56
2023/07/12 06:19:30;;;;;;;1.70;1.20;;;22.80;99.90;;;;;;5084074;28;20438;-58
2023/07/12 06:21:58;;;;;;;2.42;1.10;;;22.90;99.90;;;;;;5085655;28;20788;-56
2023/07/12 06:24:25;;;;;;;2.10;1.00;;;23.00;99.90;;;;;;5072375;28;20445;-57
2023/07/12 06:26:53;;;;;;;2.00;1.00;;;23.10;99.90;;;;;;5080669;28;20502;-57
2023/07/12 06:29:21;;;;;;;1.88;0.93;;;23.10;99.90;;;;;;5090056;28;20869;-57
2023/07/12 06:31:48;;;;;;;2.00;1.10;;;23.20;99.90;;;;;;5090495;28;20711;-57
2023/07/12 06:34:15;;;;;;;1.73;1.15;;;23.30;99.90;;;;;;5077070;28;20860;-59
2023/07/12 06:36:42;;;;;;;1.60;0.90;;;23.40;99.90;;;;;;5069617;28;20446;-58
2023/07/12 06:39:09;;;;;;;1.80;1.00;;;23.40;99.90;;;;;;5074948;28;20433;-58
2023/07/12 06:41:36;;;;;;;2.40;1.00;;;23.50;99.90;;;;;;5089839;28;20413;-58
2023/07/12 06:44:05;;;;;;;1.70;1.00;;;23.80;99.90;;;;;;5085012;28;20509;-58
2023/07/12 06:46:32;;;;;;;3.20;1.00;;;23.90;98.30;;;;;;5091413;28;20812;-56
2023/07/12 06:48:59;;;;;;;1.50;0.90;;;24.00;68.80;;;;;;5093054;28;20864;-57
2023/07/12 06:51:27;;;;;;;2.35;0.90;;;24.10;63.80;;;;;;5090703;28;20433;-57
2023/07/12 06:53:54;;;;;;;2.00;0.90;;;24.20;77.40;;;;;;5078403;28;20464;-57
2023/07/12 06:56:21;;;;;;;1.20;0.90;;;24.30;56.50;;;;;;5080917;28;20434;-58
2023/07/12 06:58:48;;;;;;;4.60;1.00;;;24.40;48.10;;;;;;5091808;28;20429;-58
2023/07/12 07:01:16;;;;;;;2.93;1.00;;;24.50;40.40;;;;;;5077794;28;20439;-57
2023/07/12 07:03:43;;;;;;;1.77;0.90;;;24.70;43.50;;;;;;5073449;28;20435;-53
2023/07/12 07:06:10;;;;;;;1.40;0.90;;;24.70;18.80;;;;;;5086155;28;20742;-55
2023/07/12 07:08:37;;;;;;;1.40;0.80;;;24.80;17.10;;;;;;5089859;28;20514;-58
2023/07/12 07:11:04;;;;;;;2.80;1.00;;;24.70;18.90;;;;;;5092058;28;20421;-56
2023/07/12 07:13:31;;;;;;;1.60;1.00;;;24.60;13.00;;;;;;5077585;28;20444;-59
2023/07/12 07:15:58;;;;;;;1.40;1.00;;;24.60;24.30;;;;;;5087139;28;20439;-57
2023/07/12 07:18:28;;;;;;;1.30;0.80;;;24.60;10.70;;;;;;5078813;28;20730;-56
2023/07/12 07:20:55;;;;;;;1.70;0.90;;;24.70;7.70;;;;;;5074483;28;20873;-55
2023/07/12 07:23:22;;;;;;;1.20;0.88;;;24.80;3.70;;;;;;5076373;28;20439;-56
2023/07/12 07:25:49;;;;;;;1.30;0.80;;;24.70;1.00;;;;;;5070255;28;20431;-60
2023/07/12 07:28:16;;;;;;;1.30;0.80;;;24.80;1.00;;;;;;5073056;28;20492;-57
2023/07/12 07:30:44;;;;;;;1.10;0.90;;;24.80;1.00;;;;;;5071805;28;20492;-56
2023/07/12 07:33:11;;;;;;;1.60;0.80;;;24.90;1.00;;;;;;5070418;28;20500;-56
2023/07/12 07:35:39;;;;;;;1.20;0.80;;;25.00;1.00;;;;;;5069189;28;20439;-57
2023/07/12 07:38:06;;;;;;;1.05;0.70;;;24.90;1.00;;;;;;5089800;28;20418;-57
2023/07/12 07:40:33;;;;;;;2.13;0.80;;;24.90;1.00;;;;;;5076306;28;20904;-57
2023/07/12 07:43:00;;;;;;;1.70;0.80;;;25.00;1.00;;;;;;5071457;28;20428;-58
2023/07/12 07:45:27;;;;;;;1.40;0.85;;;25.00;1.00;;;;;;5068724;28;20600;-57
2023/07/12 07:47:54;;;;;;;1.50;0.80;;;25.00;1.00;;;;;;5074361;28;20452;-58
2023/07/12 07:50:21;;;;;;;1.95;0.80;;;25.10;1.00;;;;;;5081739;28;20435;-55
2023/07/12 07:52:52;;;;;;;1.70;0.80;;;25.10;1.00;;;;;;5072062;28;20434;-58
2023/07/12 07:55:20;;;;;;;1.55;0.80;;;25.20;1.00;;;;;;5072000;28;20427;-57
2023/07/12 07:57:47;;;;;;;1.60;0.80;;;25.20;1.00;;;;;;5058748;28;20441;-57
2023/07/12 08:00:14;;;;;;;1.33;0.73;;;25.30;1.00;;;;;;5065239;28;20437;-57
2023/07/12 08:02:42;;;;;;;2.53;0.90;;;25.40;1.00;;;;;;5077797;28;20440;-58
2023/07/12 08:05:10;;;;;;;1.10;0.73;;;25.40;1.00;;;;;;5072077;28;20676;-57
2023/07/12 08:07:39;;;;;;;1.70;0.90;;;25.50;1.00;;;;;;5071019;28;20431;-58
2023/07/12 08:10:09;;;;;;;1.40;0.85;;;25.60;1.00;;;;;;5072632;28;20451;-57
2023/07/12 08:12:37;;;;;;;1.50;0.90;;;25.60;1.00;;;;;;5072396;28;20431;-56
2023/07/12 08:15:06;;;;;;;0.90;0.70;;;25.70;1.00;;;;;;5068520;28;20438;-58
2023/07/12 08:17:33;;;;;;;1.70;0.80;;;25.70;1.00;;;;;;5087742;28;20796;-57
2023/07/12 08:20:00;;;;;;;1.00;0.70;;;25.70;1.00;;;;;;5093195;28;20413;-58
2023/07/12 08:22:27;;;;;;;1.98;0.80;;;25.90;1.00;;;;;;5093226;28;20426;-57
2023/07/12 08:24:54;;;;;;;1.40;0.80;;;25.90;1.00;;;;;;5091152;28;20490;-57
2023/07/12 08:27:22;;;;;;;2.00;0.80;;;25.90;1.00;;;;;;5068002;28;20439;-57
2023/07/12 08:29:49;;;;;;;1.17;0.70;;;25.90;99.90;;;;;;5069785;28;20447;-57
2023/07/12 08:32:17;;;;;;;1.20;0.90;;;25.90;99.90;;;;;;5070596;28;20403;-57
2023/07/12 08:34:44;;;;;;;1.20;0.80;;;25.80;24.70;;;;;;5068682;28;20444;-57
2023/07/12 08:37:11;;;;;;;1.70;0.80;;;25.90;1.00;;;;;;5061637;28;20654;-57
2023/07/12 08:39:39;;;;;;;1.35;0.80;;;26.10;1.00;;;;;;5068467;28;20503;-57
2023/07/12 08:42:12;;;;;;;1.30;0.88;;;26.10;1.00;;;;;;5074718;28;20432;-58
2023/07/12 08:44:41;;;;;;;2.60;0.88;;;26.20;99.90;;;;;;5071211;28;20474;-58
2023/07/12 08:47:14;;;;;;;1.27;0.80;;;26.00;1.00;;;;;;5069603;28;20489;-57
2023/07/12 08:49:41;;;;;;;3.30;0.80;;;26.20;1.00;;;;;;5071890;28;20439;-58
2023/07/12 08:52:16;;;;;;;1.80;0.83;;;26.30;1.00;;;;;;5072749;28;20425;-59
2023/07/12 08:54:43;;;;;;;3.63;0.80;;;26.40;99.90;;;;;;5074552;28;20439;-58
2023/07/12 08:57:16;;;;;;;0.90;0.70;;;26.50;99.90;;;;;;5069352;28;20440;-59
2023/07/12 08:59:48;;;;;;;1.17;0.70;;;26.50;99.90;;;;;;5071784;28;21016;-59
2023/07/12 09:02:20;;;;;;;1.40;0.70;;;26.50;99.90;;;;;;5076929;28;20434;-58
2023/07/12 09:04:47;;;;;;;1.45;0.70;;;26.30;99.90;;;;;;5086601;28;20641;-59
2023/07/12 09:07:22;;;;;;;1.30;0.70;;;26.30;99.90;;;;;;5071873;28;21011;-61
2023/07/12 09:09:49;;;;;;;1.33;0.80;;;26.40;99.90;;;;;;5070602;28;20431;-58
2023/07/12 09:12:24;;;;;;;1.20;0.80;;;26.50;99.90;;;;;;5080594;28;20465;-57
2023/07/12 09:14:57;;;;;;;0.90;0.70;;;26.70;99.90;;;;;;5074369;28;20439;-58
2023/07/12 09:17:27;;;;;;;1.00;0.70;;;26.80;99.90;;;;;;5069620;28;20435;-59
2023/07/12 09:19:54;;;;;;;1.48;0.70;;;27.10;99.90;;;;;;5072260;28;21180;-59
2023/07/12 09:22:22;;;;;;;1.40;0.60;;;27.30;53.40;;;;;;5073113;28;20492;-56
2023/07/12 09:24:53;;;;;;;1.67;0.70;;;27.40;22.60;;;;;;5077333;28;20941;-57
2023/07/12 09:27:24;;;;;;;1.40;0.70;;;27.40;17.50;;;;;;5072429;28;20527;-57
2023/07/12 09:30:00;;;;;;;1.40;0.73;;;27.40;3.80;;;;;;5073432;28;20518;-56
2023/07/12 09:32:32;;;;;;;1.20;0.70;;;27.50;15.80;;;;;;5073220;28;20503;-57
2023/07/12 09:35:00;;;;;;;0.80;0.60;;;27.70;1.00;;;;;;5074082;28;22070;-61
2023/07/12 09:37:28;;;;;;;1.10;0.70;;;27.80;1.00;;;;;;5073200;28;20462;-59
2023/07/12 09:39:56;;;;;;;1.17;0.80;;;27.70;1.00;;;;;;5072262;28;20472;-59
2023/07/12 09:42:24;;;;;;;1.20;0.60;;;27.70;1.00;;;;;;5085286;28;20848;-59
2023/07/12 09:44:52;;;;;;;1.95;0.70;;;27.90;1.00;;;;;;5094205;28;20430;-58
2023/07/12 09:47:38;;;;;;;1.67;0.70;;;28.10;1.00;;;;;;5076333;28;22622;-59
2023/07/12 09:50:15;;;;;;;1.30;0.70;;;28.00;1.00;;;;;;5072270;28;20426;-59
2023/07/12 09:52:56;;;;;;;1.10;0.60;;;28.10;1.00;;;;;;5068587;28;20528;-60
2023/07/12 09:55:29;;;;;;;0.98;0.60;;;28.00;1.00;;;;;;5072704;28;20446;-58
2023/07/12 09:58:05;;;;;;;1.45;0.60;;;28.30;1.00;;;;;;5072814;28;20445;-60
2023/07/12 10:00:39;;;;;;;1.00;0.60;;;28.60;1.00;;;;;;5068138;28;20913;-59
2023/07/12 10:03:16;;;;;;;1.27;0.60;;;28.70;1.00;;;;;;5073512;28;20439;-60
2023/07/12 10:05:48;;;;;;;1.10;0.70;;;28.60;1.00;;;;;;5077201;28;20425;-58
2023/07/12 10:08:18;;;;;;;1.60;0.70;;;28.90;1.00;;;;;;5073829;28;20489;-52
2023/07/12 10:10:50;;;;;;;1.98;0.68;;;29.10;1.00;;;;;;5072508;28;20501;-57
2023/07/12 10:13:34;;;;;;;7.60;0.80;;;28.80;1.00;;;;;;5071070;28;20447;-55
2023/07/12 10:16:04;;;;;;;1.70;0.60;;;29.00;1.00;;;;;;5065561;28;20435;-57
2023/07/12 10:18:37;;;;;;;1.30;0.60;;;29.40;1.00;;;;;;5067459;28;20431;-53
2023/07/12 10:21:04;;;;;;;1.50;0.70;;;29.70;1.00;;;;;;5068675;28;20471;-56
2023/07/12 10:23:46;;;;;;;0.80;0.60;;;30.10;1.00;;;;;;5066784;28;20867;-56
2023/07/12 10:26:15;;;;;;;1.55;0.60;;;30.30;1.00;;;;;;5065945;28;20424;-55
2023/07/12 10:28:47;;;;;;;2.15;0.68;;;30.30;1.00;;;;;;5072068;28;20431;-57
2023/07/12 10:31:26;;;;;;;1.50;0.60;;;30.20;1.00;;;;;;5087680;28;20796;-55
2023/07/12 10:34:06;;;;;;;0.80;0.63;;;30.30;1.00;;;;;;5061980;28;20431;-55
2023/07/12 10:36:35;;;;;;;1.30;0.63;;;30.70;1.00;;;;;;5070835;28;20439;-54
2023/07/12 10:39:04;;;;;;;1.90;0.80;;;30.40;1.00;;;;;;5059391;28;20437;-55
2023/07/12 10:41:36;;;;;;;1.70;0.70;;;30.70;1.00;;;;;;5073604;28;20435;-54
2023/07/12 10:44:08;;;;;;;1.30;0.70;;;30.90;1.00;;;;;;5070762;28;20470;-57
2023/07/12 10:46:38;;;;;;;1.70;0.70;;;31.00;1.00;;;;;;5072105;28;20431;-53
2023/07/12 10:49:14;;;;;;;1.40;0.70;;;30.80;1.00;;;;;;5071856;28;20899;-56
2023/07/12 10:51:43;;;;;;;1.80;0.70;;;30.70;1.00;;;;;;5077094;28;20510;-55
2023/07/12 10:54:43;;;;;;;1.38;0.70;;;30.70;1.00;;;;;;5079299;28;20439;-57
2023/07/12 10:57:27;;;;;;;1.20;0.70;;;31.00;1.00;;;;;;5071738;28;20886;-55
2023/07/12 11:00:05;;;;;;;1.20;0.60;;;31.40;1.00;;;;;;5080961;28;20540;-54
2023/07/12 11:02:43;;;;;;;0.90;0.60;;;31.90;1.00;;;;;;5067415;28;20857;-56
2023/07/12 11:05:40;;;;;;;2.50;0.60;;;31.90;1.00;;;;;;5072765;28;20823;-57
2023/07/12 11:08:40;;;;;;;2.20;0.65;;;31.80;1.00;;;;;;5077244;28;20417;-58
2023/07/12 11:11:44;;;;;;;1.70;0.70;;;31.80;1.00;;;;;;5076579;28;20423;-57
2023/07/12 11:14:21;;;;;;;1.70;0.70;;;32.10;1.00;;;;;;5051986;28;20532;-59
2023/07/12 11:16:52;;;;;;;2.00;0.80;;;31.90;1.00;;;;;;5067847;28;20435;-58
2023/07/12 11:19:37;;;;;;;1.70;0.80;;;31.70;1.00;;;;;;5084798;28;21032;-58
2023/07/12 11:22:12;;;;;;;1.30;0.60;;;31.80;1.00;;;;;;5083849;28;20860;-58
2023/07/12 11:24:48;;;;;;;0.90;0.60;;;31.90;1.00;;;;;;5056762;28;20433;-58
2023/07/12 11:27:33;;;;;;;0.88;0.60;;;31.80;1.00;;;;;;5084881;28;20804;-58
2023/07/12 11:30:26;;;;;;;0.80;0.63;;;32.00;1.00;;;;;;5071144;28;20746;-59
2023/07/12 11:32:59;;;;;;;0.98;0.70;;;32.20;1.00;;;;;;5068824;28;20899;-58
2023/07/12 11:35:42;;;;;;;1.08;0.70;;;32.10;1.00;;;;;;5085551;28;20565;-57
2023/07/12 11:38:15;;;;;;;1.17;0.70;;;31.70;1.00;;;;;;5069791;28;20868;-58
2023/07/12 11:40:43;;;;;;;0.90;0.70;;;31.60;1.00;;;;;;5069692;28;20507;-58
2023/07/12 11:43:34;;;;;;;1.00;0.70;;;32.10;1.00;;;;;;5068625;28;20439;-58
2023/07/12 11:46:04;;;;;;;1.30;0.70;;;32.40;1.00;;;;;;5067422;28;20530;-58
2023/07/12 11:48:33;;;;;;;2.25;0.80;;;32.30;1.00;;;;;;5061601;28;20445;-58
2023/07/12 11:51:06;;;;;;;1.00;0.80;;;32.50;1.00;;;;;;5050065;28;20433;-58
2023/07/12 11:53:34;;;;;;;1.27;0.70;;;31.80;1.00;;;;;;5053882;28;21451;-59
2023/07/12 11:56:01;;;;;;;1.42;0.70;;;31.40;1.00;;;;;;5058189;28;20427;-59
2023/07/12 11:58:31;;;;;;;1.20;0.80;;;31.10;1.00;;;;;;5057721;28;20456;-58
2023/07/12 12:01:00;;;;;;;1.70;0.80;;;31.30;1.00;;;;;;5070864;28;20435;-59
2023/07/12 12:03:27;;;;;;;1.90;0.70;;;31.30;1.00;;;;;;5072286;28;20449;-58
2023/07/12 12:05:55;;;;;;;2.08;0.80;;;30.80;1.00;;;;;;5070586;28;20448;-57
2023/07/12 12:08:25;;;;;;;1.90;0.70;;;31.00;1.00;;;;;;5069767;28;20490;-58
2023/07/12 12:10:55;;;;;;;1.70;0.80;;;31.10;1.00;;;;;;5076475;28;21080;-59
2023/07/12 12:13:31;;;;;;;1.00;0.63;;;31.30;1.00;;;;;;5070078;28;20530;-58
2023/07/12 12:16:03;;;;;;;0.90;0.60;;;31.40;1.00;;;;;;5077680;28;20753;-58
2023/07/12 12:18:31;;;;;;;0.90;0.70;;;31.60;1.00;;;;;;5077029;28;20491;-57
2023/07/12 12:21:02;;;;;;;2.70;0.73;;;32.10;1.00;;;;;;5066476;28;20522;-57
2023/07/12 12:23:33;;;;;;;0.90;0.70;;;32.60;1.00;;;;;;5075844;28;20435;-57
2023/07/12 12:26:05;;;;;;;0.95;0.70;;;32.70;1.00;;;;;;5074632;28;20434;-57
2023/07/12 12:28:35;;;;;;;1.30;0.70;;;32.90;1.00;;;;;;5075422;28;20442;-57
2023/07/12 12:31:07;;;;;;;1.40;0.80;;;33.00;1.00;;;;;;5075443;28;20439;-57
2023/07/12 12:33:34;;;;;;;1.60;0.70;;;32.70;1.00;;;;;;5074407;28;20439;-57
2023/07/12 12:36:05;;;;;;;1.10;0.80;;;32.40;1.00;;;;;;5075244;28;21087;-57
2023/07/12 12:38:35;;;;;;;1.50;0.80;;;32.50;1.00;;;;;;5072978;28;20443;-57
2023/07/12 12:41:12;;;;;;;1.60;0.80;;;32.90;1.00;;;;;;5076065;28;20434;-58
2023/07/12 12:43:55;;;;;;;0.90;0.70;;;33.40;1.00;;;;;;5075857;28;20435;-57
2023/07/12 12:46:22;;;;;;;1.60;0.70;;;33.50;1.00;;;;;;5075894;28;20426;-59
2023/07/12 12:48:51;;;;;;;1.00;0.63;;;33.40;1.00;;;;;;5073767;28;20493;-58
2023/07/12 12:51:19;;;;;;;1.00;0.70;;;33.70;1.00;;;;;;5073621;28;20439;-58
2023/07/12 12:53:46;;;;;;;1.47;0.70;;;33.60;1.00;;;;;;5059833;28;20439;-59
2023/07/12 12:56:15;;;;;;;2.30;0.70;;;32.90;1.00;;;;;;5076839;28;20482;-61
2023/07/12 12:58:42;;;;;;;1.30;0.70;;;32.80;1.00;;;;;;5077033;28;20440;-57
2023/07/12 13:01:11;;;;;;;1.98;0.80;;;32.70;1.00;;;;;;5075817;28;20854;-58
2023/07/12 13:03:38;;;;;;;1.10;0.80;;;32.30;1.00;;;;;;5075655;28;20428;-58